Time;durP1;ratioP1;P1;durP2;ratioP2;P2;SDS_P1;SDS_P2;PMS_P1;PMS_P2;Temp;Humidity;BMP_temperature;BMP_pressure;BME280_temperature;BME280_humidity;BME280_pressure;Samples;Min_cycle;Max_cycle;Signal;HPM_P1;HPM_P2
2021/08/05 00:07:59;;;;;;;7.1;4.9;;;;;;;17.66;100;98128.27;;;;
2021/08/05 00:17:59;;;;;;;6;4.5;;;;;;;17.58;100;98137.47;;;;
2021/08/05 00:27:59;;;;;;;7;5.1;;;;;;;17.45;100;98128.67;;;;
2021/08/05 00:37:59;;;;;;;8.6;7;;;;;;;17.4;100;98128.17;;;;
2021/08/05 00:47:59;;;;;;;10.5;6.5;;;;;;;17.37;100;98112.55;;;;
2021/08/05 00:57:58;;;;;;;10;6.9;;;;;;;17.47;100;98073.8;;;;
2021/08/05 01:07:58;;;;;;;10.6;8.1;;;;;;;17.35;100;98072.07;;;;
2021/08/05 01:17:58;;;;;;;10;8.1;;;;;;;17.37;100;98060.8;;;;
2021/08/05 01:27:58;;;;;;;11;7.6;;;;;;;17.39;100;98044.89;;;;
2021/08/05 01:37:58;;;;;;;12.3;8.1;;;;;;;17.36;100;98034.7;;;;
2021/08/05 01:47:58;;;;;;;13.7;11.2;;;;;;;17.27;100;98023.28;;;;
2021/08/05 01:57:58;;;;;;;19.5;11.2;;;;;;;17.24;100;98026.73;;;;
2021/08/05 02:07:57;;;;;;;22;12.4;;;;;;;17.25;100;98023.63;;;;
2021/08/05 02:17:57;;;;;;;12.2;10.4;;;;;;;17.19;100;98016.92;;;;
2021/08/05 02:27:57;;;;;;;16.6;13.3;;;;;;;17.19;100;98008.75;;;;
2021/08/05 02:37:57;;;;;;;15;13.6;;;;;;;17.32;100;98012.09;;;;
2021/08/05 02:47:57;;;;;;;15.8;14.1;;;;;;;17.17;100;98018.45;;;;
2021/08/05 02:57:57;;;;;;;14.8;13.2;;;;;;;17.19;100;98013.41;;;;
2021/08/05 03:07:57;;;;;;;10.2;8.3;;;;;;;17.35;100;98017.59;;;;
2021/08/05 03:17:56;;;;;;;9.1;7.7;;;;;;;17.34;100;98032.36;;;;
2021/08/05 03:27:56;;;;;;;9.6;7.3;;;;;;;17;100;97971.52;;;;
2021/08/05 03:37:56;;;;;;;9.8;8.1;;;;;;;16.88;100;97966.24;;;;
2021/08/05 03:47:56;;;;;;;10.1;8.1;;;;;;;16.91;100;97992.73;;;;
2021/08/05 03:57:56;;;;;;;9;6.8;;;;;;;16.99;100;97978.1;;;;
2021/08/05 04:07:56;;;;;;;8.7;6.4;;;;;;;16.87;100;97970.11;;;;
2021/08/05 04:17:55;;;;;;;6.6;5.4;;;;;;;16.87;100;97972.83;;;;
2021/08/05 04:27:55;;;;;;;8.1;7;;;;;;;16.8;100;97969.23;;;;
2021/08/05 04:37:55;;;;;;;10.9;6.3;;;;;;;16.67;100;97949.55;;;;
2021/08/05 04:47:55;;;;;;;11.1;8.5;;;;;;;16.71;100;97922.41;;;;
2021/08/05 04:57:54;;;;;;;10.8;9.2;;;;;;;16.65;100;97923.86;;;;
2021/08/05 05:07:54;;;;;;;8.7;7.5;;;;;;;16.63;100;97917.98;;;;
2021/08/05 05:17:54;;;;;;;10.7;7.9;;;;;;;16.6;100;97900.45;;;;
2021/08/05 05:27:54;;;;;;;8.3;7.2;;;;;;;16.57;100;97885.65;;;;
2021/08/05 05:37:53;;;;;;;9;7.3;;;;;;;16.52;100;97928.67;;;;
2021/08/05 05:47:53;;;;;;;7.9;6.2;;;;;;;16.45;100;97909.51;;;;
2021/08/05 05:57:53;;;;;;;9.5;6.3;;;;;;;16.47;100;97869.13;;;;
2021/08/05 06:07:53;;;;;;;9.1;6.7;;;;;;;16.66;100;97858.18;;;;
2021/08/05 06:17:53;;;;;;;7.3;5.4;;;;;;;16.77;100;97837.37;;;;
2021/08/05 06:27:52;;;;;;;6.3;4.5;;;;;;;16.75;100;97817.91;;;;
2021/08/05 06:37:52;;;;;;;7.2;5.3;;;;;;;16.52;100;97828.03;;;;
2021/08/05 06:47:52;;;;;;;8.5;6;;;;;;;16.58;100;97865.47;;;;
2021/08/05 06:57:52;;;;;;;6.2;5.4;;;;;;;16.59;100;97891.5;;;;
2021/08/05 07:07:54;;;;;;;7.3;6.4;;;;;;;16.57;100;97884.86;;;;
2021/08/05 07:17:52;;;;;;;8.6;6.2;;;;;;;16.69;100;97871.08;;;;
2021/08/05 07:27:51;;;;;;;8.4;7.1;;;;;;;16.71;100;97862.53;;;;
2021/08/05 07:37:51;;;;;;;9;6.7;;;;;;;16.65;100;97840.3;;;;
2021/08/05 07:47:51;;;;;;;8.8;4.6;;;;;;;16.67;100;97840.72;;;;
2021/08/05 07:57:51;;;;;;;7.9;4.8;;;;;;;16.66;100;97838.38;;;;
2021/08/05 08:07:51;;;;;;;9.2;5.5;;;;;;;16.67;100;97835.27;;;;
2021/08/05 08:17:50;;;;;;;8.1;6.3;;;;;;;16.72;100;97832.25;;;;
2021/08/05 08:27:50;;;;;;;9.4;6.3;;;;;;;16.61;100;97828.58;;;;
2021/08/05 08:37:50;;;;;;;9.3;7.7;;;;;;;16.56;100;97837.83;;;;
2021/08/05 08:47:50;;;;;;;9.2;6.7;;;;;;;16.62;100;97830.16;;;;
2021/08/05 08:57:50;;;;;;;8.7;6.5;;;;;;;16.84;100;97820.36;;;;
2021/08/05 09:07:50;;;;;;;8.3;5.7;;;;;;;16.99;100;97806.59;;;;
2021/08/05 09:17:50;;;;;;;8.9;5.8;;;;;;;17.11;100;97800.91;;;;
2021/08/05 09:27:49;;;;;;;10.3;5.9;;;;;;;17.26;100;97801.88;;;;
2021/08/05 09:37:49;;;;;;;8.5;5.8;;;;;;;17.37;100;97781.02;;;;
2021/08/05 09:47:49;;;;;;;8;5.1;;;;;;;17.31;100;97782.5;;;;
2021/08/05 09:57:49;;;;;;;7.6;5.7;;;;;;;17.13;100;97765.16;;;;
2021/08/05 10:07:49;;;;;;;7.6;4.8;;;;;;;17.01;100;97747.11;;;;
2021/08/05 10:17:49;;;;;;;9.4;5.1;;;;;;;17.09;100;97723.48;;;;
2021/08/05 10:27:49;;;;;;;8.9;5.1;;;;;;;17.04;100;97730.03;;;;
2021/08/05 10:37:49;;;;;;;8;5.1;;;;;;;16.84;100;97720.45;;;;
2021/08/05 10:47:49;;;;;;;10.2;7.4;;;;;;;16.89;100;97705.73;;;;
2021/08/05 10:57:49;;;;;;;11;9.3;;;;;;;16.94;100;97694.52;;;;
2021/08/05 11:07:49;;;;;;;10;7.4;;;;;;;16.99;100;97666.97;;;;
2021/08/05 11:17:49;;;;;;;13.9;10.8;;;;;;;17.03;100;97660.42;;;;
2021/08/05 11:27:49;;;;;;;14.1;10.9;;;;;;;17.04;100;97644.88;;;;
2021/08/05 11:37:49;;;;;;;13.2;10.5;;;;;;;16.99;100;97640.54;;;;
2021/08/05 11:47:49;;;;;;;12.6;9.7;;;;;;;16.85;100;97620.54;;;;
2021/08/05 11:57:48;;;;;;;17.2;13.1;;;;;;;16.9;100;97612.81;;;;
2021/08/05 12:07:49;;;;;;;12.8;11.5;;;;;;;16.95;100;97579.04;;;;
2021/08/05 12:17:48;;;;;;;13.8;12.2;;;;;;;16.95;100;97563.5;;;;
2021/08/05 12:27:48;;;;;;;18.1;14.7;;;;;;;16.84;100;97565.32;;;;
2021/08/05 12:37:48;;;;;;;18.6;13.9;;;;;;;16.78;100;97534.16;;;;
2021/08/05 12:47:48;;;;;;;15;12.9;;;;;;;16.86;100;97538.53;;;;
2021/08/05 12:57:51;;;;;;;12.1;8.7;;;;;;;16.83;100;97541.22;;;;
2021/08/05 13:07:51;;;;;;;11.3;9.8;;;;;;;17;100;97508.73;;;;
2021/08/05 13:17:48;;;;;;;8.5;6.2;;;;;;;17.11;100;97506.1;;;;
2021/08/05 13:27:48;;;;;;;10.3;6.5;;;;;;;17.17;100;97504.59;;;;
2021/08/05 13:37:47;;;;;;;7.3;5;;;;;;;17.04;100;97485.02;;;;
2021/08/05 13:47:48;;;;;;;8.7;6.3;;;;;;;17.06;100;97471.83;;;;
2021/08/05 13:57:47;;;;;;;7.6;6;;;;;;;17.02;100;97459.34;;;;
2021/08/05 14:07:49;;;;;;;9;6;;;;;;;17.08;100;97439.55;;;;
2021/08/05 14:17:47;;;;;;;10.4;4.9;;;;;;;16.97;100;97416.16;;;;
2021/08/05 14:27:47;;;;;;;9.5;5.9;;;;;;;16.92;100;97394.72;;;;
2021/08/05 14:37:47;;;;;;;7.9;4.5;;;;;;;16.93;100;97369.07;;;;
2021/08/05 14:47:47;;;;;;;7.1;6.1;;;;;;;16.97;100;97348.86;;;;
2021/08/05 14:57:46;;;;;;;6;5.2;;;;;;;16.84;100;97333.22;;;;
2021/08/05 15:07:46;;;;;;;7.1;3.9;;;;;;;16.79;100;97326.21;;;;
2021/08/05 15:17:46;;;;;;;5.7;4;;;;;;;16.75;100;97306.36;;;;
2021/08/05 15:27:46;;;;;;;5.6;3.7;;;;;;;16.68;100;97298.14;;;;
2021/08/05 15:37:46;;;;;;;3.6;2.3;;;;;;;16.73;100;97273.28;;;;
2021/08/05 15:47:46;;;;;;;5.9;2.9;;;;;;;16.65;100;97258.09;;;;
2021/08/05 15:57:46;;;;;;;3.1;2;;;;;;;16.56;100;97231.22;;;;
2021/08/05 16:07:45;;;;;;;3;1.7;;;;;;;16.48;100;97217.94;;;;
2021/08/05 16:17:45;;;;;;;7.2;4;;;;;;;16.31;100;97221.31;;;;
2021/08/05 16:27:45;;;;;;;10;3.6;;;;;;;16.32;100;97206.55;;;;
2021/08/05 16:37:45;;;;;;;7;3.5;;;;;;;16.16;100;97200.61;;;;
2021/08/05 16:47:44;;;;;;;31.1;27.4;;;;;;;16.2;100;97176.95;;;;
2021/08/05 16:57:44;;;;;;;10.3;8.3;;;;;;;16.14;100;97167.61;;;;
2021/08/05 17:07:44;;;;;;;14.9;5.5;;;;;;;16.09;100;97155.92;;;;
2021/08/05 17:17:43;;;;;;;11.9;7;;;;;;;16.08;100;97153.57;;;;
2021/08/05 17:27:43;;;;;;;16.5;9.9;;;;;;;16.02;100;97153.16;;;;
2021/08/05 17:37:43;;;;;;;12.9;9.5;;;;;;;15.96;100;97135.65;;;;
2021/08/05 17:47:42;;;;;;;28.1;19.2;;;;;;;15.88;100;97128.59;;;;
2021/08/05 17:57:42;;;;;;;15;12.2;;;;;;;15.86;100;97132.85;;;;
2021/08/05 18:07:42;;;;;;;14.8;11.5;;;;;;;15.75;100;97132.77;;;;
2021/08/05 18:17:41;;;;;;;5.9;2.6;;;;;;;15.75;100;97104.82;;;;
2021/08/05 18:27:41;;;;;;;3.7;1.9;;;;;;;15.72;100;97106.36;;;;
2021/08/05 18:37:41;;;;;;;52.2;33.9;;;;;;;15.66;100;97102.41;;;;
2021/08/05 18:47:40;;;;;;;8.2;4.9;;;;;;;15.59;100;97094.2;;;;
2021/08/05 18:57:40;;;;;;;3.2;1.8;;;;;;;15.5;100;97099.97;;;;
2021/08/05 19:07:39;;;;;;;2.5;1.3;;;;;;;15.47;100;97083.63;;;;
2021/08/05 19:17:39;;;;;;;2.3;1;;;;;;;15.48;100;97079.76;;;;
2021/08/05 19:27:38;;;;;;;1.7;1.1;;;;;;;15.42;100;97082.02;;;;
2021/08/05 19:37:38;;;;;;;2.3;1.3;;;;;;;15.38;100;97081.21;;;;
2021/08/05 19:47:37;;;;;;;6;2;;;;;;;15.34;100;97091.25;;;;
2021/08/05 19:57:37;;;;;;;2.3;1.4;;;;;;;15.33;100;97088.92;;;;
2021/08/05 20:07:36;;;;;;;2.1;1.2;;;;;;;15.32;100;97088.14;;;;
2021/08/05 20:17:36;;;;;;;2.6;1.3;;;;;;;15.3;100;97085.03;;;;
2021/08/05 20:27:35;;;;;;;2.2;1.2;;;;;;;15.36;100;97082.75;;;;
2021/08/05 20:37:35;;;;;;;2.2;1.2;;;;;;;15.35;100;97086.61;;;;
2021/08/05 20:47:35;;;;;;;1.8;0.8;;;;;;;15.32;100;97079.22;;;;
2021/08/05 20:57:34;;;;;;;2.5;1;;;;;;;15.35;100;97073.81;;;;
2021/08/05 21:07:34;;;;;;;2.5;1.3;;;;;;;15.39;100;97076.56;;;;
2021/08/05 21:17:33;;;;;;;1.7;0.9;;;;;;;15.34;100;97057.92;;;;
2021/08/05 21:27:34;;;;;;;2.8;1.1;;;;;;;15.35;100;97070.32;;;;
2021/08/05 21:37:33;;;;;;;3.7;1.8;;;;;;;15.38;100;97059.49;;;;
2021/08/05 21:47:32;;;;;;;3.5;1.8;;;;;;;15.32;100;97043.93;;;;
2021/08/05 21:57:32;;;;;;;5.2;2.6;;;;;;;15.26;100;97034.58;;;;
2021/08/05 22:07:31;;;;;;;7.3;2.8;;;;;;;15.29;100;97031.89;;;;
2021/08/05 22:17:31;;;;;;;9.5;3.1;;;;;;;15.27;100;97017.15;;;;
2021/08/05 22:27:30;;;;;;;5;3;;;;;;;15.19;100;97018.23;;;;
2021/08/05 22:37:30;;;;;;;6;2.4;;;;;;;15.17;100;97012.41;;;;
2021/08/05 22:47:29;;;;;;;4;1.5;;;;;;;15.05;100;97011.54;;;;
2021/08/05 22:57:29;;;;;;;3.4;1.8;;;;;;;14.98;100;96997.91;;;;
2021/08/05 23:07:29;;;;;;;4.3;2.2;;;;;;;14.95;100;96997.88;;;;
2021/08/05 23:17:28;;;;;;;3.6;1.9;;;;;;;14.89;100;97010.98;;;;
2021/08/05 23:27:31;;;;;;;3.8;2.4;;;;;;;14.85;100;97010.2;;;;
2021/08/05 23:37:31;;;;;;;10.3;2.8;;;;;;;14.8;100;97015.16;;;;
2021/08/05 23:47:30;;;;;;;3.4;1.7;;;;;;;14.71;100;97014.7;;;;
2021/08/05 23:57:30;;;;;;;3.8;2.3;;;;;;;14.71;100;97009.27;;;;
